sensor_id;sensor_type;location;lat;lon;timestamp;temperature;humidity
774;DHT22;370;48.810;9.150;2023-05-17T00:01:21;8.30;1.00
774;DHT22;370;48.810;9.150;2023-05-17T00:03:47;8.20;1.00
774;DHT22;370;48.810;9.150;2023-05-17T00:06:18;8.10;1.00
774;DHT22;370;48.810;9.150;2023-05-17T00:08:45;8.00;1.00
774;DHT22;370;48.810;9.150;2023-05-17T00:11:13;8.00;1.00
774;DHT22;370;48.810;9.150;2023-05-17T00:13:41;7.90;1.00
774;DHT22;370;48.810;9.150;2023-05-17T00:16:07;7.70;1.00
774;DHT22;370;48.810;9.150;2023-05-17T00:18:34;7.60;1.00
774;DHT22;370;48.810;9.150;2023-05-17T00:21:01;7.60;1.00
774;DHT22;370;48.810;9.150;2023-05-17T00:23:28;7.40;1.00
774;DHT22;370;48.810;9.150;2023-05-17T00:25:55;7.30;2.90
774;DHT22;370;48.810;9.150;2023-05-17T00:28:23;7.20;4.00
774;DHT22;370;48.810;9.150;2023-05-17T00:30:50;7.10;5.50
774;DHT22;370;48.810;9.150;2023-05-17T00:33:16;7.00;7.60
774;DHT22;370;48.810;9.150;2023-05-17T00:35:43;7.00;7.00
774;DHT22;370;48.810;9.150;2023-05-17T00:38:10;7.10;4.40
774;DHT22;370;48.810;9.150;2023-05-17T00:40:37;7.10;5.70
774;DHT22;370;48.810;9.150;2023-05-17T00:43:04;7.10;3.90
774;DHT22;370;48.810;9.150;2023-05-17T00:45:32;7.10;3.90
774;DHT22;370;48.810;9.150;2023-05-17T00:47:58;7.10;5.30
774;DHT22;370;48.810;9.150;2023-05-17T00:50:25;7.10;5.50
774;DHT22;370;48.810;9.150;2023-05-17T00:52:53;7.00;7.40
774;DHT22;370;48.810;9.150;2023-05-17T00:55:20;7.00;8.60
774;DHT22;370;48.810;9.150;2023-05-17T00:57:48;7.00;8.60
774;DHT22;370;48.810;9.150;2023-05-17T01:00:15;7.00;8.30
774;DHT22;370;48.810;9.150;2023-05-17T01:02:44;6.90;10.50
774;DHT22;370;48.810;9.150;2023-05-17T01:05:13;6.80;10.80
774;DHT22;370;48.810;9.150;2023-05-17T01:07:39;6.80;11.40
774;DHT22;370;48.810;9.150;2023-05-17T01:10:07;6.80;11.40
774;DHT22;370;48.810;9.150;2023-05-17T01:12:44;6.70;13.20
774;DHT22;370;48.810;9.150;2023-05-17T01:18:38;6.70;12.40
774;DHT22;370;48.810;9.150;2023-05-17T01:21:21;6.60;13.80
774;DHT22;370;48.810;9.150;2023-05-17T01:23:58;6.60;15.40
774;DHT22;370;48.810;9.150;2023-05-17T01:26:40;6.60;13.40
774;DHT22;370;48.810;9.150;2023-05-17T01:29:08;6.60;13.40
774;DHT22;370;48.810;9.150;2023-05-17T01:31:37;6.50;14.80
774;DHT22;370;48.810;9.150;2023-05-17T01:34:06;6.50;16.10
774;DHT22;370;48.810;9.150;2023-05-17T01:36:33;6.40;17.20
774;DHT22;370;48.810;9.150;2023-05-17T01:39:00;6.50;17.20
774;DHT22;370;48.810;9.150;2023-05-17T01:44:55;6.60;16.50
774;DHT22;370;48.810;9.150;2023-05-17T01:47:30;6.60;14.40
774;DHT22;370;48.810;9.150;2023-05-17T01:49:59;6.60;13.50
774;DHT22;370;48.810;9.150;2023-05-17T01:52:28;6.60;13.50
774;DHT22;370;48.810;9.150;2023-05-17T01:55:04;6.60;12.80
774;DHT22;370;48.810;9.150;2023-05-17T01:57:35;6.60;12.40
774;DHT22;370;48.810;9.150;2023-05-17T02:00:05;6.60;12.70
774;DHT22;370;48.810;9.150;2023-05-17T02:02:32;6.60;12.40
774;DHT22;370;48.810;9.150;2023-05-17T02:04:59;6.60;12.40
774;DHT22;370;48.810;9.150;2023-05-17T02:07:25;6.70;11.60
774;DHT22;370;48.810;9.150;2023-05-17T02:09:52;6.60;12.40
774;DHT22;370;48.810;9.150;2023-05-17T02:12:19;6.70;12.10
774;DHT22;370;48.810;9.150;2023-05-17T02:14:46;6.70;12.10
774;DHT22;370;48.810;9.150;2023-05-17T02:17:14;6.60;12.40
774;DHT22;370;48.810;9.150;2023-05-17T02:19:40;6.70;11.40
774;DHT22;370;48.810;9.150;2023-05-17T02:22:07;6.70;11.10
774;DHT22;370;48.810;9.150;2023-05-17T02:24:34;6.80;11.50
774;DHT22;370;48.810;9.150;2023-05-17T02:27:00;6.80;9.70
774;DHT22;370;48.810;9.150;2023-05-17T02:29:28;6.90;9.50
774;DHT22;370;48.810;9.150;2023-05-17T02:31:55;7.00;8.70
774;DHT22;370;48.810;9.150;2023-05-17T02:34:23;7.00;7.10
774;DHT22;370;48.810;9.150;2023-05-17T02:36:50;6.90;8.40
774;DHT22;370;48.810;9.150;2023-05-17T02:39:17;6.80;9.50
774;DHT22;370;48.810;9.150;2023-05-17T02:41:43;6.80;9.70
774;DHT22;370;48.810;9.150;2023-05-17T02:44:10;6.80;9.50
774;DHT22;370;48.810;9.150;2023-05-17T02:46:37;6.70;11.40
774;DHT22;370;48.810;9.150;2023-05-17T02:49:03;6.60;12.40
774;DHT22;370;48.810;9.150;2023-05-17T02:51:31;6.50;12.30
774;DHT22;370;48.810;9.150;2023-05-17T02:53:58;6.40;12.30
774;DHT22;370;48.810;9.150;2023-05-17T02:56:25;6.30;14.40
774;DHT22;370;48.810;9.150;2023-05-17T02:58:51;6.30;14.20
774;DHT22;370;48.810;9.150;2023-05-17T03:01:19;6.20;15.40
774;DHT22;370;48.810;9.150;2023-05-17T03:03:46;6.10;16.00
774;DHT22;370;48.810;9.150;2023-05-17T03:06:13;6.10;17.70
774;DHT22;370;48.810;9.150;2023-05-17T03:08:41;6.00;18.90
774;DHT22;370;48.810;9.150;2023-05-17T03:11:07;6.00;18.80
774;DHT22;370;48.810;9.150;2023-05-17T03:13:34;6.00;18.40
774;DHT22;370;48.810;9.150;2023-05-17T03:16:01;5.90;18.80
774;DHT22;370;48.810;9.150;2023-05-17T03:18:28;5.90;20.40
774;DHT22;370;48.810;9.150;2023-05-17T03:20:54;5.80;20.30
774;DHT22;370;48.810;9.150;2023-05-17T03:23:21;5.70;21.30
774;DHT22;370;48.810;9.150;2023-05-17T03:25:49;5.60;22.50
774;DHT22;370;48.810;9.150;2023-05-17T03:28:16;5.60;24.10
774;DHT22;370;48.810;9.150;2023-05-17T03:30:43;5.60;23.20
774;DHT22;370;48.810;9.150;2023-05-17T03:33:10;5.60;22.40
774;DHT22;370;48.810;9.150;2023-05-17T03:35:36;5.60;22.00
774;DHT22;370;48.810;9.150;2023-05-17T03:38:03;5.60;22.90
774;DHT22;370;48.810;9.150;2023-05-17T03:40:30;5.50;22.50
774;DHT22;370;48.810;9.150;2023-05-17T03:42:58;5.50;23.20
774;DHT22;370;48.810;9.150;2023-05-17T03:45:25;5.50;22.70
774;DHT22;370;48.810;9.150;2023-05-17T03:47:52;5.50;23.30
774;DHT22;370;48.810;9.150;2023-05-17T03:50:19;5.50;23.60
774;DHT22;370;48.810;9.150;2023-05-17T03:52:45;5.40;24.20
774;DHT22;370;48.810;9.150;2023-05-17T03:55:12;5.40;25.00
774;DHT22;370;48.810;9.150;2023-05-17T03:57:39;5.40;25.50
774;DHT22;370;48.810;9.150;2023-05-17T04:00:08;5.40;25.80
774;DHT22;370;48.810;9.150;2023-05-17T04:02:36;5.50;25.70
774;DHT22;370;48.810;9.150;2023-05-17T04:05:03;5.50;25.20
774;DHT22;370;48.810;9.150;2023-05-17T04:07:30;5.60;25.50
774;DHT22;370;48.810;9.150;2023-05-17T04:09:57;5.70;23.70
774;DHT22;370;48.810;9.150;2023-05-17T04:12:24;5.70;23.20
774;DHT22;370;48.810;9.150;2023-05-17T04:14:51;5.80;22.80
774;DHT22;370;48.810;9.150;2023-05-17T04:17:19;5.80;23.00
774;DHT22;370;48.810;9.150;2023-05-17T04:19:46;5.90;21.80
774;DHT22;370;48.810;9.150;2023-05-17T04:22:12;5.90;21.70
774;DHT22;370;48.810;9.150;2023-05-17T04:24:39;5.90;22.50
774;DHT22;370;48.810;9.150;2023-05-17T04:27:06;5.90;22.30
774;DHT22;370;48.810;9.150;2023-05-17T04:29:32;6.00;21.10
774;DHT22;370;48.810;9.150;2023-05-17T04:31:59;6.00;21.70
774;DHT22;370;48.810;9.150;2023-05-17T04:34:27;6.00;21.60
774;DHT22;370;48.810;9.150;2023-05-17T04:36:56;6.10;20.50
774;DHT22;370;48.810;9.150;2023-05-17T04:39:23;6.10;21.40
774;DHT22;370;48.810;9.150;2023-05-17T04:41:49;6.10;20.50
774;DHT22;370;48.810;9.150;2023-05-17T04:44:16;6.10;20.50
774;DHT22;370;48.810;9.150;2023-05-17T04:46:43;6.20;20.60
774;DHT22;370;48.810;9.150;2023-05-17T04:49:10;6.10;21.60
774;DHT22;370;48.810;9.150;2023-05-17T04:51:38;6.20;22.10
774;DHT22;370;48.810;9.150;2023-05-17T04:54:05;6.20;21.70
774;DHT22;370;48.810;9.150;2023-05-17T04:56:34;6.30;21.80
774;DHT22;370;48.810;9.150;2023-05-17T04:59:01;6.40;20.70
774;DHT22;370;48.810;9.150;2023-05-17T05:01:28;6.50;20.80
774;DHT22;370;48.810;9.150;2023-05-17T05:03:55;6.60;20.40
774;DHT22;370;48.810;9.150;2023-05-17T05:06:22;6.60;20.40
774;DHT22;370;48.810;9.150;2023-05-17T05:08:50;6.70;19.50
774;DHT22;370;48.810;9.150;2023-05-17T05:11:17;6.80;18.80
774;DHT22;370;48.810;9.150;2023-05-17T05:13:43;6.90;19.50
774;DHT22;370;48.810;9.150;2023-05-17T05:16:10;7.00;18.20
774;DHT22;370;48.810;9.150;2023-05-17T05:18:37;7.20;17.00
774;DHT22;370;48.810;9.150;2023-05-17T05:21:04;7.40;14.50
774;DHT22;370;48.810;9.150;2023-05-17T05:23:31;7.70;14.30
774;DHT22;370;48.810;9.150;2023-05-17T05:25:59;7.80;12.40
774;DHT22;370;48.810;9.150;2023-05-17T05:28:25;7.90;11.10
774;DHT22;370;48.810;9.150;2023-05-17T05:30:56;8.10;10.60
774;DHT22;370;48.810;9.150;2023-05-17T05:33:23;8.20;10.10
774;DHT22;370;48.810;9.150;2023-05-17T05:35:51;8.30;9.50
774;DHT22;370;48.810;9.150;2023-05-17T05:38:18;8.40;9.30
774;DHT22;370;48.810;9.150;2023-05-17T05:40:45;8.70;7.60
774;DHT22;370;48.810;9.150;2023-05-17T05:43:13;9.00;7.20
774;DHT22;370;48.810;9.150;2023-05-17T05:45:40;9.10;5.20
774;DHT22;370;48.810;9.150;2023-05-17T05:48:10;9.20;5.20
774;DHT22;370;48.810;9.150;2023-05-17T05:50:37;9.40;3.50
774;DHT22;370;48.810;9.150;2023-05-17T05:53:03;9.70;1.90
774;DHT22;370;48.810;9.150;2023-05-17T05:55:30;10.00;1.00
774;DHT22;370;48.810;9.150;2023-05-17T05:57:57;10.20;1.80
774;DHT22;370;48.810;9.150;2023-05-17T06:00:25;10.30;1.00
774;DHT22;370;48.810;9.150;2023-05-17T06:02:52;10.20;1.00
774;DHT22;370;48.810;9.150;2023-05-17T06:05:20;10.40;1.00
774;DHT22;370;48.810;9.150;2023-05-17T06:07:47;10.50;1.00
774;DHT22;370;48.810;9.150;2023-05-17T06:10:13;10.40;1.00
774;DHT22;370;48.810;9.150;2023-05-17T06:12:40;10.50;1.00
774;DHT22;370;48.810;9.150;2023-05-17T06:15:08;10.70;1.00
774;DHT22;370;48.810;9.150;2023-05-17T06:17:36;10.70;1.00
774;DHT22;370;48.810;9.150;2023-05-17T06:20:03;11.00;1.00
774;DHT22;370;48.810;9.150;2023-05-17T06:22:30;11.20;1.00
774;DHT22;370;48.810;9.150;2023-05-17T06:24:57;11.60;1.00
774;DHT22;370;48.810;9.150;2023-05-17T06:27:24;11.70;1.00
774;DHT22;370;48.810;9.150;2023-05-17T06:29:50;11.70;1.00
774;DHT22;370;48.810;9.150;2023-05-17T06:32:18;12.00;1.00
774;DHT22;370;48.810;9.150;2023-05-17T06:41:30;12.10;1.00
774;DHT22;370;48.810;9.150;2023-05-17T06:43:57;12.20;1.00
774;DHT22;370;48.810;9.150;2023-05-17T06:46:23;12.50;1.00
774;DHT22;370;48.810;9.150;2023-05-17T06:52:04;12.60;1.00
774;DHT22;370;48.810;9.150;2023-05-17T06:54:31;13.00;1.00
774;DHT22;370;48.810;9.150;2023-05-17T06:57:00;13.40;1.00
774;DHT22;370;48.810;9.150;2023-05-17T06:59:27;13.70;1.00
774;DHT22;370;48.810;9.150;2023-05-17T07:01:54;13.80;1.00
774;DHT22;370;48.810;9.150;2023-05-17T07:04:21;14.20;1.00
774;DHT22;370;48.810;9.150;2023-05-17T07:06:48;14.50;1.00
774;DHT22;370;48.810;9.150;2023-05-17T07:09:15;14.90;1.00
774;DHT22;370;48.810;9.150;2023-05-17T07:11:41;15.20;1.00
774;DHT22;370;48.810;9.150;2023-05-17T07:14:09;16.00;1.00
774;DHT22;370;48.810;9.150;2023-05-17T07:16:36;16.80;1.00
774;DHT22;370;48.810;9.150;2023-05-17T07:19:03;18.00;1.00
774;DHT22;370;48.810;9.150;2023-05-17T07:21:31;18.20;1.00
774;DHT22;370;48.810;9.150;2023-05-17T07:23:58;19.20;1.00
774;DHT22;370;48.810;9.150;2023-05-17T07:26:25;19.90;1.00
774;DHT22;370;48.810;9.150;2023-05-17T07:28:52;20.30;1.00
774;DHT22;370;48.810;9.150;2023-05-17T07:31:20;20.50;1.00
774;DHT22;370;48.810;9.150;2023-05-17T07:33:46;21.00;1.00
774;DHT22;370;48.810;9.150;2023-05-17T07:36:13;20.30;1.00
774;DHT22;370;48.810;9.150;2023-05-17T07:38:40;20.20;1.00
774;DHT22;370;48.810;9.150;2023-05-17T07:41:07;19.60;1.00
774;DHT22;370;48.810;9.150;2023-05-17T07:43:35;19.10;1.00
774;DHT22;370;48.810;9.150;2023-05-17T07:46:02;19.30;1.00
774;DHT22;370;48.810;9.150;2023-05-17T07:48:30;19.70;1.00
774;DHT22;370;48.810;9.150;2023-05-17T07:50:57;19.30;1.00
774;DHT22;370;48.810;9.150;2023-05-17T07:53:24;18.50;1.00
774;DHT22;370;48.810;9.150;2023-05-17T07:55:50;18.40;1.00
774;DHT22;370;48.810;9.150;2023-05-17T07:58:17;18.80;1.00
774;DHT22;370;48.810;9.150;2023-05-17T08:00:44;18.80;1.00
774;DHT22;370;48.810;9.150;2023-05-17T08:03:11;18.90;1.00
774;DHT22;370;48.810;9.150;2023-05-17T08:05:39;18.90;1.00
774;DHT22;370;48.810;9.150;2023-05-17T08:08:06;18.90;1.00
774;DHT22;370;48.810;9.150;2023-05-17T08:10:33;18.80;1.00
774;DHT22;370;48.810;9.150;2023-05-17T08:13:02;18.60;1.00
774;DHT22;370;48.810;9.150;2023-05-17T08:15:29;18.30;1.00
774;DHT22;370;48.810;9.150;2023-05-17T08:17:55;18.20;1.00
774;DHT22;370;48.810;9.150;2023-05-17T08:20:22;18.00;1.00
774;DHT22;370;48.810;9.150;2023-05-17T08:22:50;17.90;1.00
774;DHT22;370;48.810;9.150;2023-05-17T08:25:18;17.90;1.00
774;DHT22;370;48.810;9.150;2023-05-17T08:27:45;18.30;1.00
774;DHT22;370;48.810;9.150;2023-05-17T08:30:12;18.60;1.00
774;DHT22;370;48.810;9.150;2023-05-17T08:32:39;18.50;1.00
774;DHT22;370;48.810;9.150;2023-05-17T08:35:06;18.90;1.00
774;DHT22;370;48.810;9.150;2023-05-17T08:37:33;19.00;1.00
774;DHT22;370;48.810;9.150;2023-05-17T08:40:01;18.80;1.00
774;DHT22;370;48.810;9.150;2023-05-17T08:42:29;19.10;1.00
774;DHT22;370;48.810;9.150;2023-05-17T08:44:56;19.80;1.00
774;DHT22;370;48.810;9.150;2023-05-17T08:47:25;20.50;1.00
774;DHT22;370;48.810;9.150;2023-05-17T08:49:54;21.70;1.00
774;DHT22;370;48.810;9.150;2023-05-17T08:52:27;22.60;1.00
774;DHT22;370;48.810;9.150;2023-05-17T08:54:55;23.30;1.00
774;DHT22;370;48.810;9.150;2023-05-17T08:57:23;24.20;1.00
774;DHT22;370;48.810;9.150;2023-05-17T08:59:53;25.40;1.00
774;DHT22;370;48.810;9.150;2023-05-17T09:02:20;25.40;1.00
774;DHT22;370;48.810;9.150;2023-05-17T09:04:49;25.60;1.00
774;DHT22;370;48.810;9.150;2023-05-17T09:07:20;26.10;1.00
774;DHT22;370;48.810;9.150;2023-05-17T09:09:49;25.50;1.00
774;DHT22;370;48.810;9.150;2023-05-17T09:12:16;26.30;1.00
774;DHT22;370;48.810;9.150;2023-05-17T09:14:44;26.50;1.00
774;DHT22;370;48.810;9.150;2023-05-17T09:17:14;26.00;1.00
774;DHT22;370;48.810;9.150;2023-05-17T09:19:42;26.10;1.00
774;DHT22;370;48.810;9.150;2023-05-17T09:22:12;24.90;1.00
774;DHT22;370;48.810;9.150;2023-05-17T09:24:40;24.60;1.00
774;DHT22;370;48.810;9.150;2023-05-17T09:27:08;24.90;1.00
774;DHT22;370;48.810;9.150;2023-05-17T09:29:40;26.10;1.00
774;DHT22;370;48.810;9.150;2023-05-17T09:32:14;27.10;1.00
774;DHT22;370;48.810;9.150;2023-05-17T09:34:43;28.40;1.00
774;DHT22;370;48.810;9.150;2023-05-17T09:37:12;27.60;1.00
774;DHT22;370;48.810;9.150;2023-05-17T09:39:40;26.70;1.00
774;DHT22;370;48.810;9.150;2023-05-17T09:42:07;27.50;1.00
774;DHT22;370;48.810;9.150;2023-05-17T09:44:45;28.70;1.00
774;DHT22;370;48.810;9.150;2023-05-17T09:47:22;31.10;1.00
774;DHT22;370;48.810;9.150;2023-05-17T09:49:49;32.40;1.00
774;DHT22;370;48.810;9.150;2023-05-17T09:52:17;33.10;1.00
774;DHT22;370;48.810;9.150;2023-05-17T09:54:51;31.20;1.00
774;DHT22;370;48.810;9.150;2023-05-17T09:57:19;29.30;1.00
774;DHT22;370;48.810;9.150;2023-05-17T09:59:48;27.80;1.00
774;DHT22;370;48.810;9.150;2023-05-17T10:02:21;27.00;1.00
774;DHT22;370;48.810;9.150;2023-05-17T10:04:49;26.50;1.00
774;DHT22;370;48.810;9.150;2023-05-17T10:07:20;25.00;1.00
774;DHT22;370;48.810;9.150;2023-05-17T10:09:47;23.70;1.00
774;DHT22;370;48.810;9.150;2023-05-17T10:12:17;23.00;1.00
774;DHT22;370;48.810;9.150;2023-05-17T10:14:45;22.20;1.00
774;DHT22;370;48.810;9.150;2023-05-17T10:17:13;21.50;1.00
774;DHT22;370;48.810;9.150;2023-05-17T10:19:41;20.50;1.00
774;DHT22;370;48.810;9.150;2023-05-17T10:22:09;20.00;1.00
774;DHT22;370;48.810;9.150;2023-05-17T10:24:37;19.60;1.00
774;DHT22;370;48.810;9.150;2023-05-17T10:27:06;19.30;1.00
774;DHT22;370;48.810;9.150;2023-05-17T10:29:33;19.30;1.00
774;DHT22;370;48.810;9.150;2023-05-17T10:32:02;19.00;1.00
774;DHT22;370;48.810;9.150;2023-05-17T10:38:17;19.30;1.00
774;DHT22;370;48.810;9.150;2023-05-17T10:40:45;19.60;1.00
774;DHT22;370;48.810;9.150;2023-05-17T10:43:13;19.90;1.00
774;DHT22;370;48.810;9.150;2023-05-17T10:45:41;19.90;1.00
774;DHT22;370;48.810;9.150;2023-05-17T10:48:08;20.30;1.00
774;DHT22;370;48.810;9.150;2023-05-17T10:50:37;20.40;1.00
774;DHT22;370;48.810;9.150;2023-05-17T10:53:08;20.90;1.00
774;DHT22;370;48.810;9.150;2023-05-17T10:55:39;21.70;1.00
774;DHT22;370;48.810;9.150;2023-05-17T10:58:17;23.70;1.00
774;DHT22;370;48.810;9.150;2023-05-17T11:00:45;24.00;1.00
774;DHT22;370;48.810;9.150;2023-05-17T11:03:14;23.40;1.00
774;DHT22;370;48.810;9.150;2023-05-17T11:05:43;23.30;1.00
774;DHT22;370;48.810;9.150;2023-05-17T11:08:14;23.40;1.00
774;DHT22;370;48.810;9.150;2023-05-17T11:11:11;22.50;1.00
774;DHT22;370;48.810;9.150;2023-05-17T11:13:49;22.00;1.00
774;DHT22;370;48.810;9.150;2023-05-17T11:16:20;22.20;1.00
774;DHT22;370;48.810;9.150;2023-05-17T11:18:52;22.20;1.00
774;DHT22;370;48.810;9.150;2023-05-17T11:21:19;21.90;1.00
774;DHT22;370;48.810;9.150;2023-05-17T11:23:48;21.60;1.00
774;DHT22;370;48.810;9.150;2023-05-17T11:26:22;21.30;1.00
774;DHT22;370;48.810;9.150;2023-05-17T11:28:59;20.80;1.00
774;DHT22;370;48.810;9.150;2023-05-17T11:31:30;20.20;1.00
774;DHT22;370;48.810;9.150;2023-05-17T11:33:58;19.70;1.00
774;DHT22;370;48.810;9.150;2023-05-17T11:36:25;19.10;1.00
774;DHT22;370;48.810;9.150;2023-05-17T11:39:11;18.80;1.00
774;DHT22;370;48.810;9.150;2023-05-17T11:41:47;18.80;1.00
774;DHT22;370;48.810;9.150;2023-05-17T11:44:15;18.80;1.00
774;DHT22;370;48.810;9.150;2023-05-17T11:46:43;18.60;1.00
774;DHT22;370;48.810;9.150;2023-05-17T11:49:10;18.50;1.00
774;DHT22;370;48.810;9.150;2023-05-17T11:51:38;18.50;1.00
774;DHT22;370;48.810;9.150;2023-05-17T11:54:05;18.50;1.00
774;DHT22;370;48.810;9.150;2023-05-17T11:56:33;18.50;1.00
774;DHT22;370;48.810;9.150;2023-05-17T11:59:02;18.50;1.00
774;DHT22;370;48.810;9.150;2023-05-17T12:01:41;18.60;1.00
774;DHT22;370;48.810;9.150;2023-05-17T12:04:11;18.70;1.00
774;DHT22;370;48.810;9.150;2023-05-17T12:06:38;18.50;1.00
774;DHT22;370;48.810;9.150;2023-05-17T12:09:19;18.60;1.00
774;DHT22;370;48.810;9.150;2023-05-17T12:11:46;18.80;1.00
774;DHT22;370;48.810;9.150;2023-05-17T12:14:16;19.10;1.00
774;DHT22;370;48.810;9.150;2023-05-17T12:16:47;19.20;1.00
774;DHT22;370;48.810;9.150;2023-05-17T12:19:19;19.30;1.00
774;DHT22;370;48.810;9.150;2023-05-17T12:21:46;19.60;1.00
774;DHT22;370;48.810;9.150;2023-05-17T12:24:13;19.90;1.00
774;DHT22;370;48.810;9.150;2023-05-17T12:26:44;20.00;1.00
774;DHT22;370;48.810;9.150;2023-05-17T12:29:12;20.00;1.00
774;DHT22;370;48.810;9.150;2023-05-17T12:31:47;20.30;1.00
774;DHT22;370;48.810;9.150;2023-05-17T12:34:15;20.50;1.00
774;DHT22;370;48.810;9.150;2023-05-17T12:36:43;20.60;1.00
774;DHT22;370;48.810;9.150;2023-05-17T12:39:11;20.40;1.00
774;DHT22;370;48.810;9.150;2023-05-17T12:41:38;20.30;1.00
774;DHT22;370;48.810;9.150;2023-05-17T12:44:06;20.40;1.00
774;DHT22;370;48.810;9.150;2023-05-17T12:46:33;20.70;1.00
774;DHT22;370;48.810;9.150;2023-05-17T12:49:05;21.10;1.00
774;DHT22;370;48.810;9.150;2023-05-17T12:51:39;21.30;1.00
774;DHT22;370;48.810;9.150;2023-05-17T12:54:06;21.70;1.00
774;DHT22;370;48.810;9.150;2023-05-17T12:56:33;21.70;1.00
774;DHT22;370;48.810;9.150;2023-05-17T12:59:05;21.70;1.00
774;DHT22;370;48.810;9.150;2023-05-17T13:01:33;22.00;1.00
774;DHT22;370;48.810;9.150;2023-05-17T13:04:02;22.20;1.00
774;DHT22;370;48.810;9.150;2023-05-17T13:06:29;21.90;1.00
774;DHT22;370;48.810;9.150;2023-05-17T13:09:08;21.80;1.00
774;DHT22;370;48.810;9.150;2023-05-17T13:11:35;21.40;1.00
774;DHT22;370;48.810;9.150;2023-05-17T13:14:05;21.30;1.00
774;DHT22;370;48.810;9.150;2023-05-17T13:16:35;21.40;1.00
774;DHT22;370;48.810;9.150;2023-05-17T13:19:11;21.60;1.00
774;DHT22;370;48.810;9.150;2023-05-17T13:21:38;22.00;1.00
774;DHT22;370;48.810;9.150;2023-05-17T13:24:05;22.40;1.00
774;DHT22;370;48.810;9.150;2023-05-17T13:26:31;22.50;1.00
774;DHT22;370;48.810;9.150;2023-05-17T13:28:58;22.60;1.00
774;DHT22;370;48.810;9.150;2023-05-17T13:31:25;23.00;1.00
774;DHT22;370;48.810;9.150;2023-05-17T13:33:52;23.60;1.00
774;DHT22;370;48.810;9.150;2023-05-17T13:36:20;23.70;1.00
774;DHT22;370;48.810;9.150;2023-05-17T13:38:49;24.70;1.00
774;DHT22;370;48.810;9.150;2023-05-17T13:41:16;25.30;1.00
774;DHT22;370;48.810;9.150;2023-05-17T13:43:42;25.90;1.00
774;DHT22;370;48.810;9.150;2023-05-17T13:46:09;26.30;1.00
774;DHT22;370;48.810;9.150;2023-05-17T13:48:36;26.40;1.00
774;DHT22;370;48.810;9.150;2023-05-17T13:51:03;26.40;1.00
774;DHT22;370;48.810;9.150;2023-05-17T13:53:31;26.10;1.00
774;DHT22;370;48.810;9.150;2023-05-17T13:55:58;25.40;1.00
774;DHT22;370;48.810;9.150;2023-05-17T13:58:25;24.80;1.00
774;DHT22;370;48.810;9.150;2023-05-17T14:00:51;24.50;1.00
774;DHT22;370;48.810;9.150;2023-05-17T14:03:18;23.60;1.00
774;DHT22;370;48.810;9.150;2023-05-17T14:05:45;23.30;1.00
774;DHT22;370;48.810;9.150;2023-05-17T14:08:14;23.30;1.00
774;DHT22;370;48.810;9.150;2023-05-17T14:10:43;23.20;1.00
774;DHT22;370;48.810;9.150;2023-05-17T14:13:10;22.90;1.00
774;DHT22;370;48.810;9.150;2023-05-17T14:15:37;22.80;1.00
774;DHT22;370;48.810;9.150;2023-05-17T14:18:06;22.20;1.00
774;DHT22;370;48.810;9.150;2023-05-17T14:20:33;22.00;1.00
774;DHT22;370;48.810;9.150;2023-05-17T14:23:01;21.90;1.00
774;DHT22;370;48.810;9.150;2023-05-17T14:25:27;21.80;1.00
774;DHT22;370;48.810;9.150;2023-05-17T14:27:56;21.60;1.00
774;DHT22;370;48.810;9.150;2023-05-17T14:30:23;21.40;1.00
774;DHT22;370;48.810;9.150;2023-05-17T14:32:50;20.90;1.00
774;DHT22;370;48.810;9.150;2023-05-17T14:35:17;20.70;1.00
774;DHT22;370;48.810;9.150;2023-05-17T14:37:44;20.00;1.00
774;DHT22;370;48.810;9.150;2023-05-17T14:40:11;19.70;1.00
774;DHT22;370;48.810;9.150;2023-05-17T14:42:38;19.40;1.00
774;DHT22;370;48.810;9.150;2023-05-17T14:45:08;19.30;1.00
774;DHT22;370;48.810;9.150;2023-05-17T14:47:34;19.30;1.00
774;DHT22;370;48.810;9.150;2023-05-17T14:50:02;19.00;1.00
774;DHT22;370;48.810;9.150;2023-05-17T14:52:29;18.90;1.00
774;DHT22;370;48.810;9.150;2023-05-17T14:54:56;18.90;1.00
774;DHT22;370;48.810;9.150;2023-05-17T14:57:23;18.70;1.00
774;DHT22;370;48.810;9.150;2023-05-17T14:59:50;18.60;1.00
774;DHT22;370;48.810;9.150;2023-05-17T15:02:19;18.30;1.00
774;DHT22;370;48.810;9.150;2023-05-17T15:04:46;18.00;1.00
774;DHT22;370;48.810;9.150;2023-05-17T15:07:13;17.60;1.00
774;DHT22;370;48.810;9.150;2023-05-17T15:09:40;17.30;1.00
774;DHT22;370;48.810;9.150;2023-05-17T15:12:08;16.90;1.00
774;DHT22;370;48.810;9.150;2023-05-17T15:14:35;16.80;1.00
774;DHT22;370;48.810;9.150;2023-05-17T15:17:02;16.60;1.00
774;DHT22;370;48.810;9.150;2023-05-17T15:19:31;16.40;1.00
774;DHT22;370;48.810;9.150;2023-05-17T15:21:58;16.40;1.00
774;DHT22;370;48.810;9.150;2023-05-17T15:24:27;16.40;1.00
774;DHT22;370;48.810;9.150;2023-05-17T15:26:54;16.50;1.00
774;DHT22;370;48.810;9.150;2023-05-17T15:29:20;16.70;1.00
774;DHT22;370;48.810;9.150;2023-05-17T15:31:47;16.80;1.00
774;DHT22;370;48.810;9.150;2023-05-17T15:34:14;17.00;1.00
774;DHT22;370;48.810;9.150;2023-05-17T15:36:42;17.20;1.00
774;DHT22;370;48.810;9.150;2023-05-17T15:39:09;17.50;1.00
774;DHT22;370;48.810;9.150;2023-05-17T15:41:36;17.90;1.00
774;DHT22;370;48.810;9.150;2023-05-17T15:44:04;18.30;1.00
774;DHT22;370;48.810;9.150;2023-05-17T15:46:33;18.60;1.00
774;DHT22;370;48.810;9.150;2023-05-17T15:49:00;18.50;1.00
774;DHT22;370;48.810;9.150;2023-05-17T15:51:27;18.50;1.00
774;DHT22;370;48.810;9.150;2023-05-17T15:53:55;18.40;1.00
774;DHT22;370;48.810;9.150;2023-05-17T15:56:22;18.40;1.00
774;DHT22;370;48.810;9.150;2023-05-17T15:58:49;18.50;1.00
774;DHT22;370;48.810;9.150;2023-05-17T16:01:17;18.70;1.00
774;DHT22;370;48.810;9.150;2023-05-17T16:03:43;18.90;1.00
774;DHT22;370;48.810;9.150;2023-05-17T16:06:11;18.60;1.00
774;DHT22;370;48.810;9.150;2023-05-17T16:08:38;18.60;1.00
774;DHT22;370;48.810;9.150;2023-05-17T16:11:07;18.30;1.00
774;DHT22;370;48.810;9.150;2023-05-17T16:13:34;18.20;1.00
774;DHT22;370;48.810;9.150;2023-05-17T16:16:01;18.20;1.00
774;DHT22;370;48.810;9.150;2023-05-17T16:18:28;18.00;1.00
774;DHT22;370;48.810;9.150;2023-05-17T16:20:58;17.90;1.00
774;DHT22;370;48.810;9.150;2023-05-17T16:23:25;17.90;1.00
774;DHT22;370;48.810;9.150;2023-05-17T16:25:52;17.80;1.00
774;DHT22;370;48.810;9.150;2023-05-17T16:28:22;17.70;1.00
774;DHT22;370;48.810;9.150;2023-05-17T16:30:49;17.00;1.00
774;DHT22;370;48.810;9.150;2023-05-17T16:33:17;16.70;1.00
774;DHT22;370;48.810;9.150;2023-05-17T16:35:46;16.60;1.00
774;DHT22;370;48.810;9.150;2023-05-17T16:38:13;16.50;1.00
774;DHT22;370;48.810;9.150;2023-05-17T16:40:41;16.30;1.00
774;DHT22;370;48.810;9.150;2023-05-17T16:43:08;16.10;1.00
774;DHT22;370;48.810;9.150;2023-05-17T16:45:42;15.90;1.00
774;DHT22;370;48.810;9.150;2023-05-17T16:48:10;15.70;1.00
774;DHT22;370;48.810;9.150;2023-05-17T16:50:37;15.80;1.00
774;DHT22;370;48.810;9.150;2023-05-17T16:53:05;15.70;1.00
774;DHT22;370;48.810;9.150;2023-05-17T16:55:32;15.70;1.00
774;DHT22;370;48.810;9.150;2023-05-17T16:58:00;15.60;1.00
774;DHT22;370;48.810;9.150;2023-05-17T17:00:27;15.60;1.00
774;DHT22;370;48.810;9.150;2023-05-17T17:02:57;15.60;1.00
774;DHT22;370;48.810;9.150;2023-05-17T17:05:24;15.30;1.00
774;DHT22;370;48.810;9.150;2023-05-17T17:07:53;15.10;1.00
774;DHT22;370;48.810;9.150;2023-05-17T17:10:20;14.90;1.00
774;DHT22;370;48.810;9.150;2023-05-17T17:12:48;14.90;1.00
774;DHT22;370;48.810;9.150;2023-05-17T17:15:15;15.00;1.00
774;DHT22;370;48.810;9.150;2023-05-17T17:17:42;15.00;1.00
774;DHT22;370;48.810;9.150;2023-05-17T17:20:12;14.90;1.00